Time;durP1;ratioP1;P1;durP2;ratioP2;P2;SDS_P1;SDS_P2;PMS_P1;PMS_P2;Temp;Humidity;BMP_temperature;BMP_pressure;BME280_temperature;BME280_humidity;BME280_pressure;Samples;Min_cycle;Max_cycle;Signal;HPM_P1;HPM_P2
2023/01/16 00:00:48;;;;;;;3.35;2.95;;;4.30;99.90;;;;;;5016811;28;93770;-32
2023/01/16 00:03:14;;;;;;;5.35;3.53;;;4.30;99.90;;;;;;5017862;28;92780;-31
2023/01/16 00:05:39;;;;;;;6.07;3.22;;;4.20;99.90;;;;;;5017159;28;94885;-31
2023/01/16 00:08:05;;;;;;;7.05;4.13;;;4.10;99.90;;;;;;5017394;28;94686;-31
2023/01/16 00:10:30;;;;;;;9.73;4.22;;;4.10;99.90;;;;;;5018267;28;92920;-30
2023/01/16 00:12:56;;;;;;;4.07;3.17;;;4.00;99.90;;;;;;5016564;28;93826;-32
2023/01/16 00:15:22;;;;;;;4.85;3.72;;;4.00;99.90;;;;;;5017846;28;94683;-32
2023/01/16 00:17:49;;;;;;;5.38;3.30;;;4.00;99.90;;;;;;5016534;28;94028;-31
2023/01/16 00:20:15;;;;;;;5.70;3.40;;;4.00;99.90;;;;;;5017339;28;94153;-34
2023/01/16 00:22:41;;;;;;;3.97;3.58;;;4.00;99.90;;;;;;5017871;28;92149;-34
2023/01/16 00:25:07;;;;;;;10.23;4.65;;;3.90;99.90;;;;;;5016211;28;95765;-34
2023/01/16 00:27:33;;;;;;;7.50;3.53;;;4.00;99.90;;;;;;5016958;28;95395;-34
2023/01/16 00:29:58;;;;;;;10.10;3.95;;;4.00;99.90;;;;;;5017178;28;94498;-32
2023/01/16 00:32:24;;;;;;;6.85;3.45;;;4.00;99.90;;;;;;5017096;28;93597;-34
2023/01/16 00:34:50;;;;;;;6.70;4.65;;;4.10;99.90;;;;;;5016874;28;94890;-31
2023/01/16 00:37:15;;;;;;;8.48;3.95;;;4.10;99.90;;;;;;5016121;28;94505;-31
2023/01/16 00:39:41;;;;;;;6.45;3.33;;;4.10;99.90;;;;;;5017204;28;94746;-33
2023/01/16 00:42:07;;;;;;;6.38;3.70;;;4.20;99.90;;;;;;5016219;28;92704;-34
2023/01/16 00:44:33;;;;;;;5.15;3.95;;;4.20;99.90;;;;;;5016917;28;94685;-31
2023/01/16 00:46:59;;;;;;;6.18;3.40;;;4.30;99.90;;;;;;5017149;28;93458;-31
2023/01/16 00:49:24;;;;;;;7.00;3.85;;;4.30;99.90;;;;;;5016368;28;93632;-31
2023/01/16 00:51:50;;;;;;;4.68;3.55;;;4.30;99.90;;;;;;5016982;28;92823;-31
2023/01/16 00:54:16;;;;;;;7.85;3.35;;;4.30;99.90;;;;;;5016762;28;94437;-31
2023/01/16 00:56:41;;;;;;;9.93;4.13;;;4.30;99.90;;;;;;5016786;28;94478;-35
2023/01/16 00:59:07;;;;;;;9.52;4.00;;;4.30;99.90;;;;;;5017813;28;94596;-31
2023/01/16 01:01:33;;;;;;;5.65;3.33;;;4.30;99.90;;;;;;5016220;28;94269;-34
2023/01/16 01:03:59;;;;;;;6.57;3.42;;;4.40;99.90;;;;;;5016697;28;94689;-32
2023/01/16 01:06:24;;;;;;;4.72;2.85;;;4.40;99.90;;;;;;5015954;28;93495;-32
2023/01/16 01:08:50;;;;;;;4.88;3.85;;;4.40;99.90;;;;;;5017048;28;93139;-30
2023/01/16 01:11:16;;;;;;;5.57;3.20;;;4.40;99.90;;;;;;5016505;28;93765;-32
2023/01/16 01:13:43;;;;;;;7.88;3.88;;;4.40;99.90;;;;;;5015891;28;96251;-31
2023/01/16 01:16:10;;;;;;;7.10;3.47;;;4.40;99.90;;;;;;5016000;28;95673;-34
2023/01/16 01:18:35;;;;;;;6.75;3.40;;;4.40;99.90;;;;;;5016850;28;93047;-36
2023/01/16 01:21:01;;;;;;;6.57;3.03;;;4.40;99.90;;;;;;5016682;28;94499;-32
2023/01/16 01:23:26;;;;;;;13.77;3.40;;;4.40;99.90;;;;;;5016513;28;94488;-32
2023/01/16 01:25:52;;;;;;;5.60;4.05;;;4.50;99.90;;;;;;5015867;28;94223;-35
2023/01/16 01:28:19;;;;;;;6.05;3.00;;;4.50;99.90;;;;;;5016801;28;92080;-33
2023/01/16 01:30:44;;;;;;;10.18;3.13;;;4.50;99.90;;;;;;5016095;28;91413;-34
2023/01/16 01:33:10;;;;;;;6.65;3.30;;;4.50;99.90;;;;;;5016213;28;94480;-31
2023/01/16 01:35:36;;;;;;;6.65;2.83;;;4.60;99.90;;;;;;5016039;28;94036;-35
2023/01/16 01:38:02;;;;;;;4.03;3.22;;;4.60;99.90;;;;;;5016033;28;94941;-30
2023/01/16 01:40:28;;;;;;;7.32;3.33;;;4.60;99.90;;;;;;5016407;28;93338;-34
2023/01/16 01:42:54;;;;;;;7.57;3.13;;;4.60;99.90;;;;;;5015270;27;94020;-32
2023/01/16 01:45:23;;;;;;;3.47;2.67;;;4.60;99.90;;;;;;5019889;28;94862;-32
2023/01/16 01:47:56;;;;;;;2.97;2.67;;;4.60;99.90;;;;;;5019526;28;95433;-32
2023/01/16 01:50:46;;;;;;;6.32;3.00;;;4.60;99.90;;;;;;5019121;28;92615;-34
2023/01/16 01:53:37;;;;;;;5.68;2.95;;;4.70;99.90;;;;;;5006727;28;96078;-33
2023/01/16 01:56:22;;;;;;;4.22;2.47;;;4.70;99.90;;;;;;5020173;28;94532;-35
2023/01/16 01:58:53;;;;;;;4.75;2.97;;;4.70;99.90;;;;;;5019901;28;94889;-33
2023/01/16 02:01:18;;;;;;;8.10;3.08;;;4.70;99.90;;;;;;5020447;28;92146;-31
2023/01/16 02:03:58;;;;;;;4.38;2.85;;;4.70;99.90;;;;;;5018009;28;95869;-34
2023/01/16 02:06:33;;;;;;;12.05;2.88;;;4.80;99.90;;;;;;5019096;28;95368;-33
2023/01/16 02:08:59;;;;;;;8.65;3.25;;;4.80;99.90;;;;;;5019532;28;94589;-34
2023/01/16 02:11:42;;;;;;;6.78;3.28;;;4.80;99.90;;;;;;5019802;28;92316;-31
2023/01/16 02:14:12;;;;;;;6.90;3.17;;;4.80;99.90;;;;;;5019418;28;95226;-33
2023/01/16 02:19:40;;;;;;;4.32;2.92;;;4.80;99.90;;;;;;5020013;28;94719;-31
2023/01/16 02:22:36;;;;;;;5.05;2.85;;;4.80;99.90;;;;;;5016881;28;93277;-34
2023/01/16 02:25:39;;;;;;;7.03;2.83;;;4.80;99.90;;;;;;5019735;28;94463;-35
2023/01/16 02:28:31;;;;;;;6.72;3.00;;;4.80;99.90;;;;;;5018777;28;94607;-33
2023/01/16 02:31:05;;;;;;;8.73;3.28;;;4.90;99.90;;;;;;5005128;28;94008;-32
2023/01/16 02:33:37;;;;;;;6.40;2.70;;;4.90;99.90;;;;;;5018935;28;92151;-36
2023/01/16 02:36:16;;;;;;;5.60;3.55;;;4.90;99.90;;;;;;5005164;28;94761;-32
2023/01/16 02:39:24;;;;;;;9.05;3.67;;;4.90;99.90;;;;;;5018398;28;93439;-32
2023/01/16 02:42:16;;;;;;;5.38;3.58;;;4.80;99.90;;;;;;4999574;28;92221;-31
2023/01/16 02:44:47;;;;;;;4.85;3.05;;;4.90;99.90;;;;;;5005881;28;94017;-34
2023/01/16 02:47:31;;;;;;;5.30;3.15;;;4.80;99.90;;;;;;5018462;28;94797;-32
2023/01/16 02:50:23;;;;;;;8.73;3.15;;;4.80;99.90;;;;;;5019231;28;94409;-32
2023/01/16 02:53:00;;;;;;;7.47;3.08;;;4.80;99.90;;;;;;4990373;27;93098;-34
2023/01/16 02:55:33;;;;;;;8.90;4.03;;;4.80;99.90;;;;;;5018476;28;94504;-32
2023/01/16 02:58:05;;;;;;;4.70;2.97;;;4.70;99.90;;;;;;5014377;27;95253;-31
2023/01/16 03:00:33;;;;;;;6.03;3.08;;;4.70;99.90;;;;;;5001685;27;94929;-33
2023/01/16 03:02:59;;;;;;;5.67;3.20;;;4.70;99.90;;;;;;5008758;28;94185;-34
2023/01/16 03:05:31;;;;;;;7.40;3.35;;;4.70;99.90;;;;;;5012349;27;92239;-32
2023/01/16 03:08:03;;;;;;;7.72;3.47;;;4.70;99.90;;;;;;4997632;27;94941;-33
2023/01/16 03:10:55;;;;;;;6.05;3.63;;;4.70;99.90;;;;;;5012490;28;94787;-33
2023/01/16 03:13:46;;;;;;;6.18;3.10;;;4.70;99.90;;;;;;4998576;27;93638;-33
2023/01/16 03:16:36;;;;;;;7.72;3.35;;;4.60;99.90;;;;;;4998699;28;92624;-33
2023/01/16 03:19:24;;;;;;;7.82;3.13;;;4.60;99.90;;;;;;4997922;27;94806;-32
2023/01/16 03:22:21;;;;;;;6.97;3.60;;;4.50;99.90;;;;;;4997451;27;94383;-31
2023/01/16 03:25:18;;;;;;;6.57;3.60;;;4.50;99.90;;;;;;4997890;27;95299;-32
2023/01/16 03:27:57;;;;;;;6.75;3.80;;;4.40;99.90;;;;;;4992596;27;93409;-32
2023/01/16 03:30:35;;;;;;;4.93;3.72;;;4.30;99.90;;;;;;4997951;27;94855;-32
2023/01/16 03:33:16;;;;;;;6.90;3.55;;;4.30;99.90;;;;;;4997571;28;94468;-35
2023/01/16 03:35:57;;;;;;;7.78;3.38;;;4.30;99.90;;;;;;4997966;27;94972;-34
2023/01/16 03:38:26;;;;;;;3.80;3.50;;;4.30;99.90;;;;;;4998370;27;93519;-34
2023/01/16 03:40:52;;;;;;;7.90;4.22;;;4.40;99.90;;;;;;4997398;27;94763;-32
2023/01/16 03:43:29;;;;;;;4.60;4.20;;;4.50;99.90;;;;;;4997228;27;94897;-34
2023/01/16 03:46:04;;;;;;;11.10;4.03;;;4.50;99.90;;;;;;4998603;28;93138;-32
2023/01/16 03:48:39;;;;;;;4.95;4.30;;;4.50;99.90;;;;;;5011389;27;93870;-32
2023/01/16 03:51:07;;;;;;;6.75;4.38;;;4.50;99.90;;;;;;4997905;27;95781;-32
2023/01/16 03:53:39;;;;;;;5.68;4.63;;;4.60;99.90;;;;;;5002062;27;95499;-34
2023/01/16 03:56:12;;;;;;;4.72;4.07;;;4.60;99.90;;;;;;5006404;27;92561;-34
2023/01/16 03:58:40;;;;;;;6.63;4.78;;;4.60;99.90;;;;;;4997249;27;92991;-31
2023/01/16 04:01:06;;;;;;;9.40;5.30;;;4.60;99.90;;;;;;5007549;27;94848;-30
2023/01/16 04:04:01;;;;;;;8.82;5.15;;;4.70;99.90;;;;;;5001873;27;94457;-34
2023/01/16 04:06:56;;;;;;;6.07;4.35;;;4.80;99.90;;;;;;4987523;28;94115;-32
2023/01/16 04:09:36;;;;;;;11.60;4.95;;;4.70;99.90;;;;;;5003376;27;92075;-32
2023/01/16 04:12:04;;;;;;;6.13;4.65;;;4.70;99.90;;;;;;4997708;28;95848;-34
2023/01/16 04:14:33;;;;;;;8.48;5.88;;;4.80;99.90;;;;;;5009099;27;94426;-32
2023/01/16 04:16:58;;;;;;;;;;;4.70;99.90;;;;;;4997262;27;95386;-31
2023/01/16 04:19:26;;;;;;;7.40;6.70;;;4.70;99.90;;;;;;5005726;28;93219;-32
2023/01/16 04:21:52;;;;;;;7.25;6.55;;;4.70;99.90;;;;;;5003963;28;94711;-32
2023/01/16 04:24:18;;;;;;;6.78;6.18;;;4.70;99.90;;;;;;4978087;28;94502;-34
2023/01/16 04:26:44;;;;;;;8.40;7.15;;;4.70;99.90;;;;;;4998172;28;92235;-32
2023/01/16 04:29:10;;;;;;;11.48;7.90;;;4.60;99.90;;;;;;4999674;27;94608;-33
2023/01/16 04:31:36;;;;;;;8.60;6.93;;;4.70;99.90;;;;;;5008180;27;93766;-36
2023/01/16 04:34:01;;;;;;;12.00;10.20;;;4.70;99.90;;;;;;4997087;27;94987;-32
2023/01/16 04:36:27;;;;;;;13.75;8.98;;;4.70;99.90;;;;;;4996405;27;94772;-33
2023/01/16 04:38:52;;;;;;;14.52;10.38;;;4.70;99.90;;;;;;4997251;27;94484;-32
2023/01/16 04:41:35;;;;;;;12.98;11.05;;;4.70;99.90;;;;;;4995661;27;95745;-30
2023/01/16 04:44:06;;;;;;;13.90;11.23;;;4.70;99.90;;;;;;4995850;28;95102;-31
2023/01/16 04:46:32;;;;;;;15.07;11.50;;;4.70;99.90;;;;;;4997282;28;92568;-31
2023/01/16 04:48:58;;;;;;;15.30;12.40;;;4.70;99.90;;;;;;4996067;28;92540;-33
2023/01/16 04:51:24;;;;;;;17.38;13.70;;;4.70;99.90;;;;;;4996017;28;95061;-33
2023/01/16 04:53:50;;;;;;;19.27;13.95;;;4.70;99.90;;;;;;4995915;28;94638;-32
2023/01/16 04:56:15;;;;;;;17.73;12.93;;;4.70;99.90;;;;;;4996232;27;94157;-30
2023/01/16 04:58:41;;;;;;;19.15;14.95;;;4.70;99.90;;;;;;4995820;27;92499;-33
2023/01/16 05:01:06;;;;;;;16.30;14.10;;;4.70;99.90;;;;;;5005730;28;94737;-34
2023/01/16 05:03:32;;;;;;;16.70;13.73;;;4.70;99.90;;;;;;4999747;27;95111;-35
2023/01/16 05:05:58;;;;;;;19.08;14.27;;;4.70;99.90;;;;;;4995819;28;93322;-32
2023/01/16 05:08:27;;;;;;;20.40;13.65;;;4.70;99.90;;;;;;4995680;27;93592;-32
2023/01/16 05:10:53;;;;;;;18.95;12.98;;;4.70;99.90;;;;;;4995469;28;94377;-32
2023/01/16 05:13:20;;;;;;;18.88;13.45;;;4.70;99.90;;;;;;4996349;27;94787;-31
2023/01/16 05:15:45;;;;;;;18.63;13.43;;;4.70;99.90;;;;;;5000948;27;93048;-33
2023/01/16 05:18:13;;;;;;;19.05;13.32;;;4.60;99.90;;;;;;5005493;27;94165;-31
2023/01/16 05:20:40;;;;;;;14.70;11.50;;;4.60;99.90;;;;;;4999630;27;94411;-32
2023/01/16 05:23:05;;;;;;;14.57;10.68;;;4.50;99.90;;;;;;4999510;27;94615;-32
2023/01/16 05:25:31;;;;;;;16.13;11.65;;;4.50;99.90;;;;;;4999748;27;94832;-33
2023/01/16 05:27:57;;;;;;;16.58;11.93;;;4.50;99.90;;;;;;4999940;28;93119;-32
2023/01/16 05:30:22;;;;;;;21.15;12.00;;;4.40;99.90;;;;;;4998482;27;95778;-34
2023/01/16 05:32:48;;;;;;;18.25;11.00;;;4.30;99.90;;;;;;4998472;27;95451;-33
2023/01/16 05:35:15;;;;;;;10.45;9.32;;;4.30;99.90;;;;;;4999395;27;93786;-34
2023/01/16 05:37:41;;;;;;;12.68;9.82;;;4.20;99.90;;;;;;4999562;27;92823;-31
2023/01/16 05:40:08;;;;;;;11.50;9.50;;;4.10;99.90;;;;;;5009814;28;94615;-31
2023/01/16 05:42:33;;;;;;;10.63;8.60;;;4.10;99.90;;;;;;5003305;27;94933;-32
2023/01/16 05:44:59;;;;;;;13.27;9.25;;;4.10;99.90;;;;;;5000375;28;93306;-32
2023/01/16 05:47:25;;;;;;;14.57;9.63;;;4.00;99.90;;;;;;5000428;28;92738;-34
2023/01/16 05:49:50;;;;;;;13.35;8.73;;;3.90;99.90;;;;;;4999831;27;94499;-32
2023/01/16 05:52:16;;;;;;;10.77;8.88;;;3.90;99.90;;;;;;5000310;27;94608;-31
2023/01/16 05:54:41;;;;;;;13.75;8.77;;;3.90;99.90;;;;;;4998438;27;94192;-31
2023/01/16 05:57:07;;;;;;;13.40;10.02;;;3.80;99.90;;;;;;5000102;27;93062;-33
2023/01/16 05:59:33;;;;;;;13.40;8.15;;;3.80;99.90;;;;;;4998023;27;94149;-33
2023/01/16 06:01:58;;;;;;;9.50;7.32;;;3.80;99.90;;;;;;5013591;28;94431;-32
2023/01/16 06:04:24;;;;;;;9.30;8.15;;;3.70;99.90;;;;;;4999714;28;92998;-32
2023/01/16 06:06:50;;;;;;;10.25;7.03;;;3.80;99.90;;;;;;4999293;28;94399;-32
2023/01/16 06:09:15;;;;;;;16.70;8.95;;;3.80;99.90;;;;;;4999338;27;93676;-32
2023/01/16 06:11:41;;;;;;;10.63;7.15;;;3.80;99.90;;;;;;5018727;28;94809;-31
2023/01/16 06:14:07;;;;;;;11.00;7.15;;;3.80;99.90;;;;;;5036533;27;93252;-31
2023/01/16 06:16:33;;;;;;;7.70;6.95;;;3.70;99.90;;;;;;5038713;27;94318;-32
2023/01/16 06:18:59;;;;;;;13.43;7.35;;;3.70;99.90;;;;;;5035323;27;95524;-31
2023/01/16 06:21:24;;;;;;;10.85;6.85;;;3.70;99.90;;;;;;5038179;27;95903;-33
2023/01/16 06:23:50;;;;;;;8.52;6.22;;;3.70;99.90;;;;;;5036557;27;92138;-30
2023/01/16 06:26:16;;;;;;;10.75;6.90;;;3.70;99.90;;;;;;5038566;27;94154;-32
2023/01/16 06:28:42;;;;;;;16.70;7.40;;;3.70;99.90;;;;;;5037434;27;94929;-31
2023/01/16 06:31:08;;;;;;;8.20;6.45;;;3.70;99.90;;;;;;5033185;27;94772;-33
2023/01/16 06:33:34;;;;;;;10.45;6.75;;;3.70;99.90;;;;;;5017279;27;94503;-32
2023/01/16 06:36:00;;;;;;;10.10;7.88;;;3.70;99.90;;;;;;5025227;27;93704;-32
2023/01/16 06:38:26;;;;;;;10.32;7.65;;;3.60;99.90;;;;;;5018828;28;93738;-34
2023/01/16 06:40:56;;;;;;;13.20;8.00;;;3.60;99.90;;;;;;5022505;27;96242;-32
2023/01/16 06:43:23;;;;;;;13.43;6.95;;;3.60;99.90;;;;;;5025798;27;94483;-32
2023/01/16 06:45:49;;;;;;;9.70;7.20;;;3.60;99.90;;;;;;5038455;27;94640;-33
2023/01/16 06:48:14;;;;;;;13.10;7.30;;;3.50;99.90;;;;;;5039158;27;95346;-31
2023/01/16 06:50:40;;;;;;;7.93;6.47;;;3.50;99.90;;;;;;5026599;27;94268;-33
2023/01/16 06:53:05;;;;;;;8.55;6.88;;;3.50;99.90;;;;;;5037032;27;92651;-35
2023/01/16 06:55:31;;;;;;;11.90;7.30;;;3.50;99.90;;;;;;5039229;27;94125;-31
2023/01/16 06:57:57;;;;;;;17.80;7.20;;;3.40;99.90;;;;;;5037895;27;94705;-34
2023/01/16 07:00:23;;;;;;;8.93;7.15;;;3.40;99.90;;;;;;5028950;27;94012;-31
2023/01/16 07:02:54;;;;;;;7.72;6.20;;;3.40;99.90;;;;;;5027390;27;92154;-32
2023/01/16 07:05:20;;;;;;;9.90;7.30;;;3.40;99.90;;;;;;5018636;27;92185;-34
2023/01/16 07:07:46;;;;;;;9.05;5.80;;;3.40;99.90;;;;;;5036856;27;95651;-35
2023/01/16 07:10:11;;;;;;;10.35;5.75;;;3.40;99.90;;;;;;5036713;27;94427;-31
2023/01/16 07:12:37;;;;;;;10.45;6.55;;;3.50;99.90;;;;;;5010686;27;93081;-32
2023/01/16 07:23:28;;;;;;;11.10;7.25;;;3.40;99.90;;;;;;5027895;27;94184;-32
2023/01/16 07:25:56;;;;;;;9.75;6.45;;;3.40;99.90;;;;;;5034563;27;92007;-34
2023/01/16 07:28:22;;;;;;;10.20;6.60;;;3.40;99.90;;;;;;5018926;27;94717;-31
2023/01/16 07:30:49;;;;;;;12.20;8.80;;;3.30;99.90;;;;;;5036280;27;94551;-34
2023/01/16 07:33:15;;;;;;;13.25;6.82;;;3.30;99.90;;;;;;5037214;27;95214;-32
2023/01/16 07:35:41;;;;;;;7.63;6.57;;;3.40;99.90;;;;;;5036088;27;92072;-32
2023/01/16 07:38:06;;;;;;;10.63;6.80;;;3.40;99.90;;;;;;5036999;27;94430;-31
2023/01/16 07:40:32;;;;;;;12.85;7.43;;;3.40;99.90;;;;;;5036793;27;94438;-30
2023/01/16 07:42:57;;;;;;;10.57;7.90;;;3.40;99.90;;;;;;5035254;27;92799;-32
2023/01/16 07:45:23;;;;;;;9.95;6.72;;;3.40;99.90;;;;;;5036600;27;92611;-32
2023/01/16 07:47:49;;;;;;;10.32;8.00;;;3.40;99.90;;;;;;5035270;27;94362;-34
2023/01/16 07:50:15;;;;;;;8.07;6.70;;;3.40;99.90;;;;;;5037083;27;94420;-31
2023/01/16 07:52:43;;;;;;;11.00;7.57;;;3.50;99.90;;;;;;5036504;27;94348;-33
2023/01/16 07:55:09;;;;;;;11.02;7.95;;;3.50;99.90;;;;;;5010028;27;93581;-35
2023/01/16 07:57:38;;;;;;;11.32;8.45;;;3.50;99.90;;;;;;5036832;27;95413;-31
2023/01/16 08:00:06;;;;;;;9.45;7.07;;;3.50;99.90;;;;;;5034262;27;94990;-32
2023/01/16 08:02:31;;;;;;;8.55;7.57;;;3.60;99.90;;;;;;5010183;28;92633;-31
2023/01/16 08:04:57;;;;;;;8.93;7.10;;;3.50;99.90;;;;;;4997458;28;95059;-34
2023/01/16 08:07:22;;;;;;;8.68;6.45;;;3.60;99.90;;;;;;4995107;27;94875;-31
2023/01/16 08:09:48;;;;;;;8.45;7.07;;;3.60;99.90;;;;;;5000131;28;96043;-32
2023/01/16 08:12:13;;;;;;;7.68;6.88;;;3.60;99.90;;;;;;5023929;27;92831;-34
2023/01/16 08:14:39;;;;;;;10.50;7.68;;;3.60;99.90;;;;;;5026773;27;92146;-35
2023/01/16 08:17:05;;;;;;;8.50;7.13;;;3.70;99.90;;;;;;5027469;27;94734;-32
2023/01/16 08:19:31;;;;;;;7.93;6.93;;;3.70;99.90;;;;;;5024262;27;95966;-33
2023/01/16 08:21:56;;;;;;;9.32;6.55;;;3.70;99.90;;;;;;5028630;27;93030;-34
2023/01/16 08:24:23;;;;;;;10.10;7.18;;;3.70;99.90;;;;;;5023221;27;93403;-32
2023/01/16 08:26:49;;;;;;;16.98;6.95;;;3.70;99.90;;;;;;5028827;27;94973;-32
2023/01/16 08:29:15;;;;;;;9.68;7.72;;;3.70;99.90;;;;;;5024973;27;94544;-35
2023/01/16 08:31:40;;;;;;;14.60;7.00;;;3.70;99.90;;;;;;5026995;27;94093;-34
2023/01/16 08:34:06;;;;;;;12.63;8.07;;;3.70;99.90;;;;;;5027382;27;94147;-34
2023/01/16 08:36:32;;;;;;;7.28;6.47;;;3.70;99.90;;;;;;5023073;27;94682;-31
2023/01/16 08:38:57;;;;;;;10.95;6.28;;;3.80;99.90;;;;;;5022374;27;94464;-32
2023/01/16 08:52:36;;;;;;;8.02;6.38;;;3.90;99.90;;;;;;5016793;27;92879;-32
2023/01/16 08:55:03;;;;;;;9.90;5.45;;;4.00;99.90;;;;;;5021894;27;93377;-33
2023/01/16 08:57:29;;;;;;;5.18;4.75;;;4.00;99.90;;;;;;5012252;27;96091;-35
2023/01/16 08:59:56;;;;;;;7.18;5.57;;;4.00;99.90;;;;;;5015534;27;94944;-31
2023/01/16 09:02:22;;;;;;;9.13;5.55;;;4.00;99.90;;;;;;5008221;28;93492;-34
2023/01/16 09:04:48;;;;;;;9.48;5.43;;;4.00;99.90;;;;;;4994595;28;93633;-32
2023/01/16 09:07:15;;;;;;;5.47;4.35;;;4.10;99.90;;;;;;4995025;28;93347;-32
2023/01/16 09:09:41;;;;;;;4.55;4.07;;;4.10;99.90;;;;;;4993875;28;94606;-33
2023/01/16 09:14:56;;;;;;;6.88;4.07;;;4.20;99.90;;;;;;5002628;28;93105;-32
2023/01/16 09:17:24;;;;;;;4.72;3.85;;;4.20;99.90;;;;;;4994435;28;94229;-34
2023/01/16 09:19:50;;;;;;;5.50;4.10;;;4.30;99.90;;;;;;4975782;28;94183;-30
2023/01/16 09:22:15;;;;;;;10.25;4.85;;;4.30;99.90;;;;;;4994552;27;94377;-35
2023/01/16 09:24:41;;;;;;;4.55;4.15;;;4.30;99.90;;;;;;4994497;28;94564;-32
2023/01/16 09:27:07;;;;;;;5.53;4.80;;;4.30;99.90;;;;;;4993571;28;94680;-31
2023/01/16 09:29:32;;;;;;;13.23;4.03;;;4.30;99.90;;;;;;4994656;28;94499;-33
2023/01/16 09:31:58;;;;;;;5.85;4.60;;;4.30;99.90;;;;;;4993793;28;92168;-31
2023/01/16 09:34:24;;;;;;;5.70;5.18;;;4.30;99.90;;;;;;4994381;28;93797;-32
2023/01/16 09:36:50;;;;;;;6.13;4.40;;;4.30;99.90;;;;;;4993652;28;95564;-33
2023/01/16 09:39:16;;;;;;;4.63;4.10;;;4.30;99.90;;;;;;4993179;27;95357;-31
2023/01/16 09:45:06;;;;;;;7.13;4.18;;;4.20;99.90;;;;;;4920217;28;93178;-32
2023/01/16 09:47:32;;;;;;;8.57;3.95;;;4.30;99.90;;;;;;4934647;28;94598;-32
2023/01/16 09:50:19;;;;;;;6.57;3.47;;;4.30;99.90;;;;;;4934395;28;94733;-32
2023/01/16 09:58:35;;;;;;;3.22;2.47;;;4.40;99.90;;;;;;4934911;28;94408;-34
2023/01/16 10:01:21;;;;;;;4.05;2.38;;;4.40;99.90;;;;;;4935052;28;95004;-34
2023/01/16 10:03:46;;;;;;;3.25;2.35;;;4.40;99.90;;;;;;4925891;28;95218;-34
2023/01/16 10:06:36;;;;;;;3.88;2.70;;;4.60;99.90;;;;;;4937255;28;94083;-35
2023/01/16 10:09:21;;;;;;;2.55;2.10;;;4.60;99.90;;;;;;4937808;28;94567;-31
2023/01/16 10:12:11;;;;;;;3.45;2.70;;;4.60;99.90;;;;;;4938164;28;94529;-33
2023/01/16 10:14:51;;;;;;;2.83;2.22;;;4.60;99.90;;;;;;4916932;28;93788;-33
2023/01/16 10:17:44;;;;;;;6.13;2.78;;;4.60;99.90;;;;;;4937100;28;93740;-34
2023/01/16 10:20:09;;;;;;;3.45;2.42;;;4.70;99.90;;;;;;4937833;28;94775;-31
2023/01/16 10:22:38;;;;;;;3.17;2.17;;;4.70;99.90;;;;;;4938294;28;95648;-30
2023/01/16 10:25:22;;;;;;;;;;;4.70;99.90;;;;;;4937796;28;94484;-34
2023/01/16 10:28:28;;;;;;;3.45;2.00;;;4.70;99.90;;;;;;4938754;28;93339;-31
2023/01/16 10:30:58;;;;;;;3.33;2.08;;;4.70;99.90;;;;;;4936888;28;96525;-32
2023/01/16 10:33:42;;;;;;;2.55;2.35;;;4.60;99.90;;;;;;4937806;28;95894;-30
2023/01/16 10:36:11;;;;;;;6.82;2.63;;;4.70;99.90;;;;;;4937245;28;94044;-35
2023/01/16 10:38:45;;;;;;;4.93;2.42;;;4.50;99.90;;;;;;4936322;28;94505;-34
2023/01/16 10:49:54;;;;;;;2.97;2.17;;;4.60;99.90;;;;;;4938337;28;92758;-33
2023/01/16 10:52:21;;;;;;;4.03;3.17;;;4.40;99.90;;;;;;4936877;28;94191;-32
2023/01/16 10:54:47;;;;;;;3.38;2.75;;;4.50;99.90;;;;;;4936887;28;93849;-33
2023/01/16 10:57:18;;;;;;;4.32;2.75;;;4.40;99.90;;;;;;4936963;28;94378;-32
2023/01/16 10:59:46;;;;;;;5.93;3.08;;;4.40;99.90;;;;;;4936412;28;92316;-31
2023/01/16 11:02:22;;;;;;;3.20;2.13;;;4.40;99.90;;;;;;4936744;28;94721;-34
2023/01/16 11:04:48;;;;;;;2.72;2.33;;;4.40;99.90;;;;;;4936453;28;94499;-35
2023/01/16 11:07:19;;;;;;;2.97;2.38;;;4.50;99.90;;;;;;4937526;28;93467;-30
2023/01/16 11:09:46;;;;;;;4.43;2.88;;;4.50;99.90;;;;;;4937543;28;93183;-32
2023/01/16 11:18:29;;;;;;;3.22;2.17;;;4.50;99.90;;;;;;4936631;28;93308;-34
2023/01/16 11:20:57;;;;;;;3.67;2.55;;;4.60;99.90;;;;;;4936470;28;92657;-31
2023/01/16 11:23:26;;;;;;;5.43;2.40;;;4.50;99.90;;;;;;4935985;28;94203;-35
2023/01/16 11:25:55;;;;;;;3.25;2.40;;;4.50;99.90;;;;;;4929278;28;95375;-31
2023/01/16 11:28:30;;;;;;;6.57;2.75;;;4.50;99.90;;;;;;4916416;28;93349;-31
2023/01/16 11:31:11;;;;;;;5.18;3.15;;;4.50;99.90;;;;;;4919279;28;93079;-33
2023/01/16 11:33:44;;;;;;;3.03;2.72;;;4.60;99.90;;;;;;4934805;28;95278;-32
2023/01/16 11:36:10;;;;;;;3.50;2.65;;;4.50;99.90;;;;;;4932147;28;94405;-34
2023/01/16 11:38:38;;;;;;;6.05;3.30;;;4.50;99.90;;;;;;4935075;28;94270;-35
2023/01/16 11:41:07;;;;;;;2.83;2.63;;;4.50;99.90;;;;;;4934133;28;93407;-32
2023/01/16 11:46:40;;;;;;;7.68;3.00;;;4.50;99.90;;;;;;4932892;28;95631;-32
2023/01/16 11:49:18;;;;;;;2.95;2.65;;;4.60;99.90;;;;;;4934390;28;95316;-34
2023/01/16 11:51:43;;;;;;;3.92;3.28;;;4.60;99.90;;;;;;4933679;28;94065;-30
2023/01/16 11:54:14;;;;;;;6.70;3.80;;;4.50;99.90;;;;;;4935517;28;95251;-32
2023/01/16 11:56:50;;;;;;;3.70;3.35;;;4.50;99.90;;;;;;4933814;28;94649;-33
2023/01/16 11:59:31;;;;;;;3.53;3.10;;;4.60;99.90;;;;;;4934922;28;94555;-30
2023/01/16 12:02:19;;;;;;;3.65;3.00;;;4.60;99.90;;;;;;4935460;28;92345;-32
2023/01/16 12:07:48;;;;;;;4.35;3.97;;;4.60;99.90;;;;;;4936002;28;95973;-32
2023/01/16 12:10:16;;;;;;;5.47;3.53;;;4.60;99.90;;;;;;4936744;28;92770;-31
2023/01/16 12:15:49;;;;;;;3.60;3.03;;;4.70;99.90;;;;;;4936945;28;95709;-33
2023/01/16 12:18:34;;;;;;;4.38;3.03;;;4.70;99.90;;;;;;4935837;28;93975;-34
2023/01/16 12:21:02;;;;;;;5.43;3.85;;;4.80;99.90;;;;;;4936367;28;93422;-32
2023/01/16 12:24:01;;;;;;;4.03;3.13;;;4.80;99.90;;;;;;4936084;28;93460;-32
2023/01/16 12:26:33;;;;;;;10.00;3.45;;;4.80;99.90;;;;;;4935742;28;94627;-33
2023/01/16 12:29:07;;;;;;;4.97;2.75;;;4.80;99.90;;;;;;4935224;28;94733;-32
2023/01/16 12:31:48;;;;;;;4.32;3.50;;;4.90;99.90;;;;;;4936975;28;92147;-32
2023/01/16 12:34:55;;;;;;;4.28;3.88;;;4.90;99.90;;;;;;4936168;28;93437;-32
2023/01/16 12:37:41;;;;;;;3.60;3.30;;;4.80;99.90;;;;;;4935710;28;94301;-32
2023/01/16 12:40:26;;;;;;;2.95;2.35;;;4.80;99.90;;;;;;4935982;28;94356;-32
2023/01/16 12:43:23;;;;;;;3.22;2.92;;;4.90;99.90;;;;;;4934549;28;95241;-34
2023/01/16 12:45:56;;;;;;;3.78;2.88;;;4.90;99.90;;;;;;4917588;28;92190;-31
2023/01/16 12:48:27;;;;;;;3.90;2.80;;;4.80;99.90;;;;;;4935701;28;94908;-33
2023/01/16 12:51:23;;;;;;;5.07;2.83;;;4.80;99.90;;;;;;4933996;28;94625;-33
2023/01/16 12:54:21;;;;;;;6.45;3.00;;;4.80;99.90;;;;;;4914211;28;93159;-31
2023/01/16 12:57:01;;;;;;;2.97;2.70;;;4.80;99.90;;;;;;4913487;28;94157;-31
2023/01/16 12:59:48;;;;;;;3.15;2.55;;;4.90;99.90;;;;;;4914929;28;94819;-31
2023/01/16 13:02:23;;;;;;;3.55;2.88;;;4.90;99.90;;;;;;4934986;28;95453;-32
2023/01/16 13:04:58;;;;;;;2.55;2.35;;;4.90;99.90;;;;;;4935414;28;93101;-31
2023/01/16 13:07:28;;;;;;;3.28;2.58;;;4.90;99.90;;;;;;4935336;28;93123;-33
2023/01/16 13:15:36;;;;;;;4.72;3.17;;;4.90;99.90;;;;;;4933121;28;94634;-34
2023/01/16 13:18:22;;;;;;;4.80;3.25;;;5.00;99.90;;;;;;4915046;28;93556;-34
2023/01/16 13:20:53;;;;;;;3.40;3.10;;;4.90;99.90;;;;;;4931024;28;95499;-35
2023/01/16 13:23:26;;;;;;;8.82;3.33;;;4.90;99.90;;;;;;4918060;28;95091;-32
2023/01/16 13:26:06;;;;;;;3.65;3.20;;;4.90;99.90;;;;;;4919310;28;95423;-34
2023/01/16 13:28:45;;;;;;;3.67;2.65;;;4.90;99.90;;;;;;4918286;28;94358;-32
2023/01/16 13:31:53;;;;;;;6.07;3.47;;;5.00;99.90;;;;;;4917923;28;93715;-35
2023/01/16 13:34:26;;;;;;;2.83;2.20;;;5.00;99.90;;;;;;4919251;28;95139;-31
2023/01/16 13:37:06;;;;;;;3.47;3.08;;;5.10;99.90;;;;;;4917523;28;95585;-32
2023/01/16 13:39:38;;;;;;;5.32;3.25;;;5.00;99.90;;;;;;4920132;28;93887;-34
2023/01/16 13:42:07;;;;;;;3.25;2.72;;;5.10;99.90;;;;;;4921179;28;94884;-31
2023/01/16 13:47:29;;;;;;;2.50;2.30;;;5.20;99.90;;;;;;4922170;28;94419;-33
2023/01/16 13:50:03;;;;;;;4.22;3.55;;;5.30;99.90;;;;;;4921034;28;94829;-31
2023/01/16 13:52:29;;;;;;;4.45;2.80;;;5.20;99.90;;;;;;4921844;28;94863;-33
2023/01/16 13:54:58;;;;;;;5.22;3.15;;;5.20;99.90;;;;;;4922633;28;94333;-31
2023/01/16 13:57:27;;;;;;;4.32;3.30;;;5.30;99.90;;;;;;4922129;28;92887;-32
2023/01/16 13:59:57;;;;;;;4.10;2.45;;;5.30;99.90;;;;;;4922329;28;93917;-34
2023/01/16 14:02:29;;;;;;;2.53;2.33;;;5.30;99.90;;;;;;4894675;28;95363;-31
2023/01/16 14:05:06;;;;;;;3.08;2.67;;;5.30;99.90;;;;;;4937613;28;94969;-33
2023/01/16 14:10:56;;;;;;;4.30;2.83;;;5.10;99.90;;;;;;4937691;28;94143;-34
2023/01/16 14:13:31;;;;;;;4.75;2.63;;;5.20;99.90;;;;;;4937397;28;94467;-32
2023/01/16 14:18:56;;;;;;;3.13;2.63;;;5.20;99.90;;;;;;4922968;28;93861;-34
2023/01/16 14:21:28;;;;;;;4.40;1.83;;;5.10;99.90;;;;;;4936693;28;92198;-31
2023/01/16 14:24:00;;;;;;;3.28;2.40;;;5.20;99.90;;;;;;4934769;28;94814;-31
2023/01/16 14:26:34;;;;;;;2.33;1.80;;;5.20;99.90;;;;;;4936173;28;94370;-35